createdAt,value
2022-12-03T00:00:57.076Z,5.50
2022-12-03T00:03:25.088Z,5.50
2022-12-03T00:05:53.058Z,5.50
2022-12-03T00:08:20.980Z,5.50
2022-12-03T00:10:49.008Z,5.50
2022-12-03T00:13:16.913Z,5.50
2022-12-03T00:15:45.674Z,5.50
2022-12-03T00:18:13.739Z,5.50
2022-12-03T00:20:41.745Z,5.50
2022-12-03T00:23:09.624Z,5.50
2022-12-03T00:25:37.560Z,5.50
2022-12-03T00:28:05.492Z,5.50
2022-12-03T00:30:33.553Z,5.50
2022-12-03T00:33:01.629Z,5.60
2022-12-03T00:35:29.459Z,5.60
2022-12-03T00:37:57.548Z,5.60
2022-12-03T00:40:25.461Z,5.50
2022-12-03T00:42:53.568Z,5.50
2022-12-03T00:45:21.407Z,5.50
2022-12-03T00:47:49.419Z,5.40
2022-12-03T00:50:17.360Z,5.50
2022-12-03T00:52:45.373Z,5.50
2022-12-03T00:55:13.346Z,5.50
2022-12-03T00:57:42.628Z,5.40
2022-12-03T01:00:11.146Z,5.40
2022-12-03T01:02:39.238Z,5.40
2022-12-03T01:05:07.426Z,5.40
2022-12-03T01:07:36.579Z,5.40
2022-12-03T01:10:05.033Z,5.40
2022-12-03T01:12:32.854Z,5.40
2022-12-03T01:15:00.730Z,5.50
2022-12-03T01:17:28.872Z,5.40
2022-12-03T01:19:56.792Z,5.50
2022-12-03T01:22:25.296Z,5.40
2022-12-03T01:24:53.372Z,5.40
2022-12-03T01:27:21.539Z,5.40
2022-12-03T01:29:49.456Z,5.40
2022-12-03T01:32:17.342Z,5.40
2022-12-03T01:34:46.841Z,5.40
2022-12-03T01:37:14.907Z,5.40
2022-12-03T01:39:44.001Z,5.40
2022-12-03T01:42:32.214Z,5.40
2022-12-03T01:45:00.656Z,5.40
2022-12-03T01:47:30.981Z,5.40
2022-12-03T01:50:06.130Z,5.40
2022-12-03T01:52:36.606Z,5.40
2022-12-03T01:55:07.856Z,5.40
2022-12-03T01:57:43.996Z,5.40
2022-12-03T02:00:16.513Z,5.40
2022-12-03T02:02:44.835Z,5.40
2022-12-03T02:05:20.237Z,5.40
2022-12-03T02:07:48.214Z,5.40
2022-12-03T02:10:17.493Z,5.30
2022-12-03T02:12:53.454Z,5.40
2022-12-03T02:15:21.518Z,5.40
2022-12-03T02:17:49.616Z,5.40
2022-12-03T02:20:17.771Z,5.40
2022-12-03T02:22:55.001Z,5.40
2022-12-03T02:25:24.785Z,5.40
2022-12-03T02:27:53.934Z,5.30
2022-12-03T02:30:23.300Z,5.40
2022-12-03T02:32:52.238Z,5.40
2022-12-03T02:35:21.439Z,5.40
2022-12-03T02:37:51.968Z,5.40
2022-12-03T02:40:21.967Z,5.40
2022-12-03T02:42:51.147Z,5.40
2022-12-03T02:45:45.615Z,5.40
2022-12-03T02:48:13.501Z,5.40
2022-12-03T02:50:42.810Z,5.30
2022-12-03T02:53:13.617Z,5.30
2022-12-03T02:55:41.828Z,5.30
2022-12-03T02:58:10.369Z,5.30
2022-12-03T03:00:38.744Z,5.40
2022-12-03T03:03:08.119Z,5.40
2022-12-03T03:05:36.970Z,5.40
2022-12-03T03:08:05.796Z,5.40
2022-12-03T03:10:34.761Z,5.40
2022-12-03T03:13:04.111Z,5.40
2022-12-03T03:15:32.047Z,5.30
2022-12-03T03:17:59.959Z,5.30
2022-12-03T03:20:28.000Z,5.30
2022-12-03T03:23:04.746Z,5.20
2022-12-03T03:25:33.398Z,5.20
2022-12-03T03:28:01.406Z,5.30
2022-12-03T03:30:29.402Z,5.30
2022-12-03T03:32:57.941Z,5.30
2022-12-03T03:35:25.948Z,5.40
2022-12-03T03:37:54.106Z,5.30
2022-12-03T03:40:22.455Z,5.30
2022-12-03T03:42:50.479Z,5.30
2022-12-03T03:45:22.654Z,5.30
2022-12-03T03:47:53.940Z,5.30
2022-12-03T03:50:22.159Z,5.20
2022-12-03T03:52:50.139Z,5.20
2022-12-03T03:55:20.663Z,5.20
2022-12-03T03:57:48.841Z,5.20
2022-12-03T04:00:17.480Z,5.20
2022-12-03T04:02:45.768Z,5.20
2022-12-03T04:05:18.231Z,5.20
2022-12-03T04:07:46.458Z,5.20
2022-12-03T04:10:33.839Z,5.30
2022-12-03T04:13:01.729Z,5.30
2022-12-03T04:15:29.756Z,5.30
2022-12-03T04:18:16.359Z,5.30
2022-12-03T04:20:44.250Z,5.30
2022-12-03T04:23:12.289Z,5.20
2022-12-03T04:25:58.790Z,5.20
2022-12-03T04:28:45.180Z,5.20
2022-12-03T04:31:31.724Z,5.20
2022-12-03T04:34:38.178Z,5.20
2022-12-03T04:37:06.240Z,5.20
2022-12-03T04:39:34.205Z,5.30
2022-12-03T04:42:02.426Z,5.30
2022-12-03T04:44:39.411Z,5.30
2022-12-03T04:47:20.234Z,5.30
2022-12-03T04:49:49.429Z,5.20
2022-12-03T04:52:18.406Z,5.20
2022-12-03T04:54:46.781Z,5.20
2022-12-03T04:57:14.812Z,5.20
2022-12-03T04:59:42.711Z,5.10
2022-12-03T05:02:10.767Z,5.10
2022-12-03T05:04:38.702Z,5.10
2022-12-03T05:07:06.701Z,5.10
2022-12-03T05:09:34.555Z,5.20
2022-12-03T05:12:02.667Z,5.20
2022-12-03T05:14:30.610Z,5.20
2022-12-03T05:16:58.788Z,5.20
2022-12-03T05:19:46.679Z,5.30
2022-12-03T05:22:14.679Z,5.30
2022-12-03T05:24:43.229Z,5.20
2022-12-03T05:27:11.258Z,5.20
2022-12-03T05:29:39.315Z,5.20
2022-12-03T05:32:07.458Z,5.20
2022-12-03T05:34:35.378Z,5.10
2022-12-03T05:37:03.324Z,5.10
2022-12-03T05:39:31.306Z,5.10
2022-12-03T05:42:17.850Z,5.10
2022-12-03T05:44:45.824Z,5.10
2022-12-03T05:47:13.663Z,5.10
2022-12-03T05:49:41.626Z,5.10
2022-12-03T05:52:09.548Z,5.10
2022-12-03T05:54:37.596Z,5.20
2022-12-03T05:57:05.931Z,5.30
2022-12-03T05:59:37.043Z,5.30
2022-12-03T06:02:05.078Z,5.30
2022-12-03T06:04:32.962Z,5.30
2022-12-03T06:07:00.860Z,5.30
2022-12-03T06:09:28.831Z,5.30
2022-12-03T06:11:56.699Z,5.40
2022-12-03T06:14:24.681Z,5.40
2022-12-03T06:16:52.759Z,5.40
2022-12-03T06:19:20.639Z,5.40
2022-12-03T06:21:48.579Z,5.40
2022-12-03T06:24:16.439Z,5.40
2022-12-03T06:26:44.394Z,5.50
2022-12-03T06:29:12.411Z,5.50
2022-12-03T06:31:40.424Z,5.50
2022-12-03T06:34:08.573Z,5.50
2022-12-03T06:36:36.488Z,5.50
2022-12-03T06:39:04.419Z,5.50
2022-12-03T06:41:32.523Z,5.60
2022-12-03T06:44:00.773Z,5.60
2022-12-03T06:46:28.759Z,5.60
2022-12-03T06:48:56.709Z,5.60
2022-12-03T06:51:24.704Z,5.60
2022-12-03T06:53:53.054Z,5.70
2022-12-03T06:56:22.550Z,5.70
2022-12-03T06:58:50.590Z,5.80
2022-12-03T07:01:18.654Z,5.80
2022-12-03T07:03:46.795Z,5.90
2022-12-03T07:06:14.750Z,5.90
2022-12-03T07:08:42.577Z,6.00
2022-12-03T07:11:30.506Z,6.10
2022-12-03T07:14:04.724Z,6.10
2022-12-03T07:16:34.594Z,6.20
2022-12-03T07:19:02.831Z,6.20
2022-12-03T07:21:30.833Z,6.30
2022-12-03T07:23:58.729Z,6.40
2022-12-03T07:26:27.125Z,6.50
2022-12-03T07:28:56.719Z,6.60
2022-12-03T07:31:24.863Z,6.70
2022-12-03T07:33:53.003Z,6.80
2022-12-03T07:36:21.070Z,6.80
2022-12-03T07:38:49.246Z,6.90
2022-12-03T07:41:17.207Z,6.90
2022-12-03T07:43:45.673Z,7.00
2022-12-03T07:46:13.888Z,7.00
2022-12-03T07:48:41.878Z,7.10
2022-12-03T07:51:14.224Z,7.10
2022-12-03T07:53:43.465Z,7.10
2022-12-03T07:56:11.502Z,7.10
2022-12-03T07:58:39.466Z,7.10
2022-12-03T08:01:07.459Z,7.10
2022-12-03T08:03:35.624Z,7.20
2022-12-03T08:06:03.680Z,7.20
2022-12-03T08:08:31.739Z,7.30
2022-12-03T08:11:00.773Z,7.40
2022-12-03T08:13:28.758Z,7.50
2022-12-03T08:15:57.673Z,7.60
2022-12-03T08:18:25.856Z,7.70
2022-12-03T08:20:54.515Z,7.80
2022-12-03T08:23:23.881Z,7.90
2022-12-03T08:25:52.923Z,7.90
2022-12-03T08:28:22.234Z,8.00
2022-12-03T08:31:01.117Z,8.00
2022-12-03T08:33:31.344Z,8.00
2022-12-03T08:35:59.553Z,8.00
2022-12-03T08:38:29.072Z,8.00
2022-12-03T08:40:56.920Z,8.00
2022-12-03T08:43:28.809Z,8.00
2022-12-03T08:45:57.599Z,8.00
2022-12-03T08:48:48.419Z,8.10
2022-12-03T08:51:19.873Z,8.10
2022-12-03T08:53:56.677Z,8.10
2022-12-03T08:56:28.551Z,8.20
2022-12-03T08:59:03.275Z,8.20
2022-12-03T09:01:31.374Z,8.30
2022-12-03T09:04:05.750Z,8.30
2022-12-03T09:06:33.708Z,8.40
2022-12-03T09:09:06.524Z,8.50
2022-12-03T09:11:35.114Z,8.50
2022-12-03T09:14:03.010Z,8.50
2022-12-03T09:16:31.159Z,8.50
2022-12-03T09:18:59.234Z,8.50
2022-12-03T09:21:27.210Z,8.40
2022-12-03T09:23:58.211Z,8.40
2022-12-03T09:26:27.424Z,8.40
2022-12-03T09:28:55.257Z,8.40
2022-12-03T09:31:23.341Z,8.40
2022-12-03T09:33:51.345Z,8.30
2022-12-03T09:36:19.271Z,8.30
2022-12-03T09:38:48.292Z,8.30
2022-12-03T09:41:16.381Z,8.20
2022-12-03T09:44:03.500Z,8.20
2022-12-03T09:46:32.976Z,8.10
2022-12-03T09:49:01.672Z,8.10
2022-12-03T09:51:31.889Z,8.10
2022-12-03T09:54:00.945Z,8.10
2022-12-03T09:56:30.258Z,8.10
2022-12-03T09:58:58.334Z,8.10
2022-12-03T10:01:30.085Z,8.10
2022-12-03T10:03:58.958Z,8.00
2022-12-03T10:06:26.882Z,8.00
2022-12-03T10:08:55.404Z,8.00
2022-12-03T10:11:24.943Z,8.00
2022-12-03T10:13:56.849Z,7.90
2022-12-03T10:16:26.375Z,7.90
2022-12-03T10:18:58.320Z,7.80
2022-12-03T10:21:32.409Z,7.80
2022-12-03T10:24:19.181Z,7.80
2022-12-03T10:26:48.473Z,7.70
2022-12-03T10:29:31.658Z,7.70
2022-12-03T10:32:04.631Z,7.70
2022-12-03T10:34:41.475Z,7.70
2022-12-03T10:37:15.796Z,7.80
2022-12-03T10:39:56.663Z,7.80
2022-12-03T10:42:27.251Z,7.90
2022-12-03T10:45:14.785Z,7.80
2022-12-03T10:47:43.434Z,7.90
2022-12-03T10:50:19.661Z,8.00
2022-12-03T10:52:56.085Z,8.00
2022-12-03T10:55:28.778Z,8.10
2022-12-03T10:57:57.543Z,8.10
2022-12-03T11:00:25.741Z,8.10
2022-12-03T11:02:57.657Z,8.20
2022-12-03T11:05:29.828Z,8.20
2022-12-03T11:08:18.020Z,8.30
2022-12-03T11:11:01.779Z,8.30
2022-12-03T11:13:43.982Z,8.30
2022-12-03T11:16:12.580Z,8.20
2022-12-03T11:18:41.075Z,8.20
2022-12-03T11:21:09.765Z,8.20
2022-12-03T11:23:44.510Z,8.10
2022-12-03T11:26:18.426Z,8.20
2022-12-03T11:28:47.206Z,8.20
2022-12-03T11:31:34.708Z,8.20
2022-12-03T11:34:20.593Z,8.20
2022-12-03T11:37:11.969Z,8.20
2022-12-03T11:39:52.864Z,8.10
2022-12-03T11:42:27.833Z,8.10
2022-12-03T11:45:05.303Z,8.10
2022-12-03T11:47:38.351Z,8.10
2022-12-03T11:50:38.971Z,8.20
2022-12-03T11:53:22.361Z,8.30
2022-12-03T11:56:09.666Z,8.40
2022-12-03T11:58:39.457Z,8.40
2022-12-03T12:01:08.254Z,8.40
2022-12-03T12:03:46.905Z,8.40
2022-12-03T12:06:19.846Z,8.50
2022-12-03T12:08:52.006Z,8.40
2022-12-03T12:11:25.712Z,8.40
2022-12-03T12:13:55.868Z,8.40
2022-12-03T12:16:53.338Z,8.30
2022-12-03T12:19:38.229Z,8.30
2022-12-03T12:22:15.714Z,8.20
2022-12-03T12:24:51.113Z,8.20
2022-12-03T12:27:51.505Z,8.20
2022-12-03T12:30:20.700Z,8.10
2022-12-03T12:32:53.524Z,8.10
2022-12-03T12:35:25.593Z,8.00
2022-12-03T12:38:00.023Z,7.90
2022-12-03T12:40:33.201Z,7.80
2022-12-03T12:43:09.997Z,7.70
2022-12-03T12:45:44.128Z,7.60
2022-12-03T12:48:17.483Z,7.50
2022-12-03T12:50:48.558Z,7.50
2022-12-03T12:53:16.435Z,7.50
2022-12-03T12:55:44.505Z,7.50
2022-12-03T12:58:15.678Z,7.50
2022-12-03T13:00:45.974Z,7.40
2022-12-03T13:03:16.695Z,7.40
2022-12-03T13:05:47.348Z,7.30
2022-12-03T13:08:26.606Z,7.30
2022-12-03T13:10:55.620Z,7.30
2022-12-03T13:13:26.413Z,7.30
2022-12-03T13:16:02.031Z,7.20
2022-12-03T13:18:34.672Z,7.20
2022-12-03T13:21:29.044Z,7.30
2022-12-03T13:23:57.608Z,7.20
2022-12-03T13:26:36.542Z,7.20
2022-12-03T13:29:17.046Z,7.20
2022-12-03T13:31:59.434Z,7.10
2022-12-03T13:34:31.447Z,7.10
2022-12-03T13:37:00.668Z,7.10
2022-12-03T13:39:33.019Z,7.10
2022-12-03T13:42:34.226Z,7.10
2022-12-03T13:45:07.057Z,7.10
2022-12-03T13:47:35.045Z,7.00
2022-12-03T13:50:10.668Z,7.00
2022-12-03T13:52:38.647Z,6.90
2022-12-03T13:55:07.542Z,7.00
2022-12-03T13:57:35.451Z,6.90
2022-12-03T14:00:03.992Z,6.90
2022-12-03T14:02:40.434Z,6.80
2022-12-03T14:05:08.407Z,6.80
2022-12-03T14:07:51.639Z,6.70
2022-12-03T14:10:19.705Z,6.70
2022-12-03T14:12:47.639Z,6.70
2022-12-03T14:15:15.579Z,6.60
2022-12-03T14:17:43.457Z,6.60
2022-12-03T14:20:11.741Z,6.60
2022-12-03T14:22:39.673Z,6.50
2022-12-03T14:25:08.302Z,6.50
2022-12-03T14:27:36.230Z,6.50
2022-12-03T14:30:04.416Z,6.40
2022-12-03T14:32:32.329Z,6.40
2022-12-03T14:35:01.926Z,6.40
2022-12-03T14:37:34.345Z,6.30
2022-12-03T14:40:04.049Z,6.30
2022-12-03T14:42:32.040Z,6.30
2022-12-03T14:44:59.955Z,6.30
2022-12-03T14:47:27.918Z,6.40
2022-12-03T14:49:56.442Z,6.40
2022-12-03T14:52:24.589Z,6.40
2022-12-03T14:54:52.724Z,6.40
2022-12-03T14:57:21.164Z,6.40
2022-12-03T14:59:49.278Z,6.40
2022-12-03T15:02:17.290Z,6.40
2022-12-03T15:04:45.259Z,6.40
2022-12-03T15:07:13.182Z,6.40
2022-12-03T15:09:41.071Z,6.30
2022-12-03T15:12:09.066Z,6.30
2022-12-03T15:14:37.015Z,6.20
2022-12-03T15:17:05.213Z,6.20
2022-12-03T15:19:33.445Z,6.20
2022-12-03T15:22:01.381Z,6.20
2022-12-03T15:24:29.439Z,6.10
2022-12-03T15:26:57.368Z,6.10
2022-12-03T15:29:25.690Z,6.10
2022-12-03T15:31:53.635Z,6.10
2022-12-03T15:34:23.027Z,6.10
2022-12-03T15:36:51.600Z,6.10
2022-12-03T15:39:19.712Z,6.00
2022-12-03T15:41:47.591Z,6.00
2022-12-03T15:44:15.586Z,6.00
2022-12-03T15:46:43.814Z,6.00
2022-12-03T15:49:11.805Z,5.90
2022-12-03T15:51:39.880Z,5.90
2022-12-03T15:54:07.740Z,5.90
2022-12-03T15:56:37.908Z,5.90
2022-12-03T15:59:06.093Z,5.90
2022-12-03T16:01:34.171Z,5.90
2022-12-03T16:04:02.105Z,5.90
2022-12-03T16:06:29.992Z,5.90
2022-12-03T16:09:01.110Z,5.90
2022-12-03T16:11:29.076Z,6.00
2022-12-03T16:13:57.037Z,6.00
2022-12-03T16:16:25.118Z,6.10
2022-12-03T16:18:53.070Z,6.10
2022-12-03T16:21:26.444Z,6.10
2022-12-03T16:23:55.453Z,6.10
2022-12-03T16:26:24.456Z,6.10
2022-12-03T16:28:52.412Z,6.00
2022-12-03T16:31:20.434Z,6.00
2022-12-03T16:33:49.051Z,6.00
2022-12-03T16:36:17.278Z,5.90
2022-12-03T16:38:45.425Z,5.90
2022-12-03T16:41:13.346Z,5.90
2022-12-03T16:43:41.391Z,5.90
2022-12-03T16:46:15.176Z,5.90
2022-12-03T16:48:43.589Z,5.90
2022-12-03T16:51:11.579Z,5.90
2022-12-03T16:53:43.162Z,5.90
2022-12-03T16:56:11.110Z,5.80
2022-12-03T16:58:39.105Z,5.80
2022-12-03T17:01:07.271Z,5.80
2022-12-03T17:03:35.372Z,5.70
2022-12-03T17:06:04.201Z,5.70
2022-12-03T17:08:32.231Z,5.70
2022-12-03T17:11:00.267Z,5.70
2022-12-03T17:13:28.288Z,5.70
2022-12-03T17:15:56.255Z,5.70
2022-12-03T17:18:24.392Z,5.70
2022-12-03T17:20:52.330Z,5.80
2022-12-03T17:23:20.443Z,5.80
2022-12-03T17:25:48.359Z,5.90
2022-12-03T17:28:16.250Z,5.90
2022-12-03T17:30:44.649Z,5.90
2022-12-03T17:33:12.792Z,5.90
2022-12-03T17:35:40.703Z,5.90
2022-12-03T17:38:09.575Z,5.80
2022-12-03T17:40:37.454Z,5.80
2022-12-03T17:43:05.771Z,5.80
2022-12-03T17:45:33.744Z,5.70
2022-12-03T17:48:01.989Z,5.70
2022-12-03T17:50:29.930Z,5.70
2022-12-03T17:52:58.378Z,5.70
2022-12-03T17:55:35.900Z,5.70
2022-12-03T17:58:06.819Z,5.60
2022-12-03T18:00:34.828Z,5.60
2022-12-03T18:03:02.698Z,5.60
2022-12-03T18:05:30.716Z,5.60
2022-12-03T18:07:58.639Z,5.60
2022-12-03T18:10:26.766Z,5.60
2022-12-03T18:12:59.900Z,5.60
2022-12-03T18:15:29.840Z,5.50
2022-12-03T18:17:57.692Z,5.60
2022-12-03T18:20:25.638Z,5.60
2022-12-03T18:22:53.533Z,5.60
2022-12-03T18:25:21.613Z,5.60
2022-12-03T18:27:49.605Z,5.70
2022-12-03T18:30:17.643Z,5.70
2022-12-03T18:32:46.259Z,5.80
2022-12-03T18:35:14.296Z,5.80
2022-12-03T18:37:42.391Z,5.70
2022-12-03T18:40:18.059Z,5.70
2022-12-03T18:42:46.289Z,5.70
2022-12-03T18:45:15.150Z,5.70
2022-12-03T18:47:43.378Z,5.60
2022-12-03T18:50:11.856Z,5.60
2022-12-03T18:52:41.031Z,5.60
2022-12-03T18:55:09.290Z,5.60
2022-12-03T18:57:37.226Z,5.60
2022-12-03T19:00:11.775Z,5.60
2022-12-03T19:05:29.426Z,5.50
2022-12-03T19:07:57.486Z,5.50
2022-12-03T19:10:25.896Z,5.50
2022-12-03T19:12:53.870Z,5.50
2022-12-03T19:15:21.868Z,5.50
2022-12-03T19:17:50.048Z,5.50
2022-12-03T19:20:18.021Z,5.50
2022-12-03T19:22:46.578Z,5.60
2022-12-03T19:25:14.656Z,5.60
2022-12-03T19:27:42.533Z,5.60
2022-12-03T19:30:11.059Z,5.60
2022-12-03T19:32:39.493Z,5.60
2022-12-03T19:35:08.187Z,5.60
2022-12-03T19:37:36.119Z,5.60
2022-12-03T19:40:04.324Z,5.60
2022-12-03T19:42:32.267Z,5.60
2022-12-03T19:45:00.447Z,5.50
2022-12-03T19:47:28.280Z,5.50
2022-12-03T19:49:56.591Z,5.50
2022-12-03T19:52:24.677Z,5.50
2022-12-03T19:54:52.658Z,5.40
2022-12-03T19:57:23.432Z,5.40
2022-12-03T19:59:51.896Z,5.40
2022-12-03T20:02:20.238Z,5.40
2022-12-03T20:04:48.402Z,5.40
2022-12-03T20:07:16.279Z,5.40
2022-12-03T20:09:44.239Z,5.40
2022-12-03T20:12:12.089Z,5.40
2022-12-03T20:14:39.975Z,5.40
2022-12-03T20:17:07.909Z,5.40
2022-12-03T20:19:35.989Z,5.40
2022-12-03T20:22:03.802Z,5.50
2022-12-03T20:24:31.737Z,5.50
2022-12-03T20:26:59.786Z,5.50
2022-12-03T20:29:27.740Z,5.50
2022-12-03T20:31:56.187Z,5.60
2022-12-03T20:34:24.248Z,5.60
2022-12-03T20:36:52.366Z,5.60
2022-12-03T20:39:20.416Z,5.60
2022-12-03T20:41:48.351Z,5.50
2022-12-03T20:44:16.288Z,5.50
2022-12-03T20:46:44.491Z,5.50
2022-12-03T20:49:12.343Z,5.50
2022-12-03T20:51:41.508Z,5.40
2022-12-03T20:54:10.111Z,5.40
2022-12-03T20:56:42.311Z,5.40
2022-12-03T20:59:14.123Z,5.40
2022-12-03T21:01:42.473Z,5.40
2022-12-03T21:04:13.784Z,5.40
2022-12-03T21:06:42.703Z,5.30
2022-12-03T21:09:11.380Z,5.30
2022-12-03T21:11:42.740Z,5.30
2022-12-03T21:14:11.461Z,5.30
2022-12-03T21:17:06.667Z,5.30
2022-12-03T21:19:28.492Z,5.20
2022-12-03T21:21:56.373Z,5.30
2022-12-03T21:24:24.701Z,5.30
2022-12-03T21:26:52.610Z,5.30
2022-12-03T21:29:20.710Z,5.40
2022-12-03T21:31:48.686Z,5.40
2022-12-03T21:34:16.780Z,5.40
2022-12-03T21:36:44.677Z,5.40
2022-12-03T21:39:12.623Z,5.50
2022-12-03T21:41:40.500Z,5.50
2022-12-03T21:44:31.024Z,5.50
2022-12-03T21:47:11.822Z,5.50
2022-12-03T21:49:42.010Z,5.50
2022-12-03T21:52:10.441Z,5.50
2022-12-03T21:54:38.269Z,5.40
2022-12-03T21:57:06.112Z,5.40
2022-12-03T21:59:34.111Z,5.40
2022-12-03T22:02:02.066Z,5.30
2022-12-03T22:04:30.227Z,5.40
2022-12-03T22:06:58.141Z,5.30
2022-12-03T22:09:27.086Z,5.30
2022-12-03T22:11:57.156Z,5.30
2022-12-03T22:14:25.401Z,5.20
2022-12-03T22:16:53.421Z,5.20
2022-12-03T22:19:25.397Z,5.20
2022-12-03T22:21:53.296Z,5.20
2022-12-03T22:24:21.481Z,5.20
2022-12-03T22:26:49.466Z,5.20
2022-12-03T22:29:17.594Z,5.10
2022-12-03T22:31:45.465Z,5.20
2022-12-03T22:34:13.508Z,5.20
2022-12-03T22:36:41.549Z,5.30
2022-12-03T22:39:09.461Z,5.30
2022-12-03T22:41:37.497Z,5.30
2022-12-03T22:44:05.679Z,5.30
2022-12-03T22:46:33.514Z,5.40
2022-12-03T22:49:06.750Z,5.40
2022-12-03T22:51:35.833Z,5.40
2022-12-03T22:54:04.125Z,5.40
2022-12-03T22:56:32.294Z,5.40
2022-12-03T22:59:00.412Z,5.40
2022-12-03T23:01:30.190Z,5.40
2022-12-03T23:03:58.364Z,5.30
2022-12-03T23:06:26.886Z,5.30
2022-12-03T23:08:55.357Z,5.30
2022-12-03T23:11:23.495Z,5.30
2022-12-03T23:13:51.531Z,5.30
2022-12-03T23:16:21.553Z,5.20
2022-12-03T23:18:53.098Z,5.20
2022-12-03T23:21:29.024Z,5.20
2022-12-03T23:23:58.450Z,5.20
2022-12-03T23:26:27.011Z,5.20
2022-12-03T23:28:55.171Z,5.20
2022-12-03T23:31:28.205Z,5.20
2022-12-03T23:33:56.870Z,5.20
2022-12-03T23:36:25.575Z,5.20
2022-12-03T23:38:53.736Z,5.30
2022-12-03T23:41:23.003Z,5.30
2022-12-03T23:43:50.883Z,5.30
2022-12-03T23:46:20.431Z,5.30
2022-12-03T23:48:48.494Z,5.30
2022-12-03T23:51:18.097Z,5.30
2022-12-03T23:53:46.201Z,5.30
2022-12-03T23:56:16.067Z,5.30
2022-12-03T23:58:44.390Z,5.20
